createdAt,value
2023-01-19T00:02:09.307Z,12.43
2023-01-19T00:05:13.472Z,11.50
2023-01-19T00:08:17.805Z,10.18
2023-01-19T00:11:21.720Z,10.73
2023-01-19T00:14:24.896Z,10.40
2023-01-19T00:17:28.001Z,10.52
2023-01-19T00:20:32.914Z,12.52
2023-01-19T00:23:39.193Z,11.88
2023-01-19T00:26:48.698Z,10.55
2023-01-19T00:29:52.036Z,10.87
2023-01-19T00:32:54.847Z,8.93
2023-01-19T00:35:57.595Z,9.95
2023-01-19T00:39:01.132Z,9.77
2023-01-19T00:42:22.969Z,8.13
2023-01-19T00:45:26.632Z,6.90
2023-01-19T00:48:31.027Z,8.95
2023-01-19T00:51:34.051Z,8.43
2023-01-19T00:54:37.181Z,6.28
2023-01-19T00:57:40.706Z,6.62
2023-01-19T01:00:44.813Z,4.90
2023-01-19T01:03:47.762Z,5.30
2023-01-19T01:06:54.110Z,5.82
2023-01-19T01:09:57.994Z,7.70
2023-01-19T01:13:20.714Z,7.03
2023-01-19T01:16:25.077Z,6.67
2023-01-19T01:19:28.328Z,7.97
2023-01-19T01:22:31.930Z,7.93
2023-01-19T01:25:37.861Z,9.35
2023-01-19T01:28:40.596Z,8.70
2023-01-19T01:31:43.438Z,9.87
2023-01-19T01:34:46.050Z,10.45
2023-01-19T01:37:49.048Z,11.30
2023-01-19T01:40:51.455Z,9.48
2023-01-19T01:43:58.711Z,9.38
2023-01-19T01:47:02.878Z,9.50
2023-01-19T01:50:09.645Z,9.27
2023-01-19T01:53:14.723Z,9.55
2023-01-19T01:56:24.445Z,11.88
2023-01-19T01:59:39.211Z,12.18
2023-01-19T02:02:51.596Z,11.13
2023-01-19T02:06:00.238Z,10.00
2023-01-19T02:09:28.497Z,11.30
2023-01-19T02:12:52.075Z,9.60
2023-01-19T02:16:03.940Z,7.20
2023-01-19T02:19:13.015Z,9.13
2023-01-19T02:22:38.933Z,8.18
2023-01-19T02:25:41.942Z,7.10
2023-01-19T02:29:00.724Z,6.15
2023-01-19T02:32:05.741Z,6.18
2023-01-19T02:35:10.001Z,6.10
2023-01-19T02:38:16.437Z,7.03
2023-01-19T02:41:26.092Z,5.72
2023-01-19T02:44:30.643Z,5.65
2023-01-19T02:47:49.540Z,4.57
2023-01-19T02:50:57.585Z,4.43
2023-01-19T02:54:22.475Z,4.50
2023-01-19T02:57:51.144Z,5.45
2023-01-19T03:01:18.693Z,4.78
2023-01-19T03:04:22.268Z,3.80
2023-01-19T03:07:39.336Z,3.90
2023-01-19T03:11:00.610Z,3.85
2023-01-19T03:14:14.484Z,4.20
2023-01-19T03:17:19.121Z,4.32
2023-01-19T03:20:25.571Z,4.00
2023-01-19T03:23:32.234Z,4.47
2023-01-19T03:26:49.892Z,3.75
2023-01-19T03:30:01.857Z,4.30
2023-01-19T03:33:13.054Z,3.80
2023-01-19T03:36:27.075Z,3.70
2023-01-19T03:39:32.011Z,3.97
2023-01-19T03:42:37.074Z,4.47
2023-01-19T03:45:40.759Z,3.78
2023-01-19T03:48:45.520Z,4.15
2023-01-19T03:51:49.794Z,3.92
2023-01-19T03:54:59.441Z,3.57
2023-01-19T03:58:03.967Z,4.55
2023-01-19T04:01:07.953Z,5.43
2023-01-19T04:04:10.793Z,3.72
2023-01-19T04:07:13.534Z,3.87
2023-01-19T04:10:19.887Z,4.57
2023-01-19T04:13:23.842Z,4.37
2023-01-19T04:16:27.816Z,4.12
2023-01-19T04:19:30.619Z,4.03
2023-01-19T04:22:35.602Z,4.10
2023-01-19T04:25:39.027Z,4.23
2023-01-19T04:28:42.855Z,2.90
2023-01-19T04:31:45.799Z,3.33
2023-01-19T04:34:48.799Z,3.42
2023-01-19T04:37:51.698Z,3.08
2023-01-19T04:40:55.950Z,2.80
2023-01-19T04:43:58.764Z,3.12
2023-01-19T04:47:02.959Z,2.50
2023-01-19T04:50:08.648Z,2.55
2023-01-19T04:53:13.843Z,4.03
2023-01-19T04:56:18.687Z,3.63
2023-01-19T04:59:23.196Z,2.83
2023-01-19T05:02:27.952Z,2.22
2023-01-19T05:05:33.075Z,2.90
2023-01-19T05:08:37.004Z,4.60
2023-01-19T05:11:40.661Z,3.10
2023-01-19T05:14:44.874Z,3.58
2023-01-19T05:17:50.046Z,2.67
2023-01-19T05:20:54.927Z,3.55
2023-01-19T05:23:59.129Z,3.65
2023-01-19T05:27:04.974Z,2.77
2023-01-19T05:30:10.757Z,3.30
2023-01-19T05:33:23.639Z,2.22
2023-01-19T05:36:27.993Z,2.87
2023-01-19T05:39:32.599Z,2.75
2023-01-19T05:42:37.666Z,3.07
2023-01-19T05:45:41.752Z,2.65
2023-01-19T05:48:48.941Z,3.00
2023-01-19T05:51:52.245Z,2.78
2023-01-19T05:54:56.139Z,3.28
2023-01-19T05:57:58.724Z,2.50
2023-01-19T06:01:05.518Z,2.47
2023-01-19T06:04:10.640Z,4.03
2023-01-19T06:07:23.317Z,4.50
2023-01-19T06:10:31.639Z,3.25
2023-01-19T06:13:36.110Z,3.20
2023-01-19T06:16:47.668Z,3.22
2023-01-19T06:19:52.900Z,4.87
2023-01-19T06:23:00.161Z,5.82
2023-01-19T06:26:04.139Z,5.62
2023-01-19T06:29:12.324Z,5.10
2023-01-19T06:32:15.305Z,4.10
2023-01-19T06:35:20.592Z,4.60
2023-01-19T06:38:23.659Z,4.90
2023-01-19T06:41:26.657Z,4.65
2023-01-19T06:44:30.454Z,6.07
2023-01-19T06:47:37.140Z,4.80
2023-01-19T06:50:40.913Z,4.57
2023-01-19T06:53:44.607Z,4.97
2023-01-19T06:56:49.788Z,4.90
2023-01-19T06:59:53.659Z,4.40
2023-01-19T07:02:56.693Z,4.87
2023-01-19T07:06:06.652Z,5.30
2023-01-19T07:09:12.001Z,4.03
2023-01-19T07:12:17.713Z,4.97
2023-01-19T07:15:29.522Z,4.63
2023-01-19T07:18:33.155Z,4.50
2023-01-19T07:21:37.772Z,6.55
2023-01-19T07:24:42.850Z,5.57
2023-01-19T07:27:48.810Z,7.57
2023-01-19T07:30:54.775Z,7.33
2023-01-19T07:33:58.113Z,6.97
2023-01-19T07:37:02.771Z,7.70
2023-01-19T07:40:07.788Z,6.82
2023-01-19T07:43:10.891Z,6.82
2023-01-19T07:46:18.179Z,8.53
2023-01-19T07:49:21.474Z,9.60
2023-01-19T07:52:31.039Z,10.18
2023-01-19T07:55:35.576Z,11.07
2023-01-19T07:58:46.964Z,8.20
2023-01-19T08:01:53.609Z,9.77
2023-01-19T08:04:56.727Z,9.63
2023-01-19T08:08:00.737Z,9.63
2023-01-19T08:11:10.544Z,8.98
2023-01-19T08:14:14.671Z,9.45
2023-01-19T08:17:22.096Z,8.70
2023-01-19T08:20:29.146Z,9.45
2023-01-19T08:23:32.720Z,10.85
2023-01-19T08:26:35.790Z,9.25
2023-01-19T08:29:39.114Z,10.60
2023-01-19T08:32:44.755Z,10.80
2023-01-19T08:35:50.627Z,12.20
2023-01-19T08:38:54.273Z,10.43
2023-01-19T08:42:04.231Z,10.25
2023-01-19T08:45:09.571Z,12.00
2023-01-19T08:48:19.754Z,11.13
2023-01-19T08:51:32.875Z,12.80
2023-01-19T08:54:39.327Z,13.35
2023-01-19T08:57:43.714Z,12.95
2023-01-19T09:00:52.784Z,16.70
2023-01-19T09:03:56.337Z,15.60
2023-01-19T09:07:02.986Z,15.75
2023-01-19T09:10:10.620Z,18.05
2023-01-19T09:13:18.974Z,18.83
2023-01-19T09:16:22.207Z,17.65
2023-01-19T09:19:30.543Z,17.33
2023-01-19T09:22:36.369Z,17.75
2023-01-19T09:25:42.098Z,16.05
2023-01-19T09:28:45.190Z,15.63
2023-01-19T09:31:49.880Z,17.05
2023-01-19T09:34:55.281Z,19.77
2023-01-19T09:38:00.118Z,17.80
2023-01-19T09:41:05.651Z,20.98
2023-01-19T09:44:18.765Z,21.58
2023-01-19T09:47:27.362Z,20.17
2023-01-19T09:50:46.824Z,18.97
2023-01-19T09:53:56.539Z,18.90
2023-01-19T09:57:11.714Z,20.05
2023-01-19T10:00:23.595Z,18.77
2023-01-19T10:03:29.561Z,17.52
2023-01-19T10:06:36.557Z,17.97
2023-01-19T10:09:58.787Z,18.55
2023-01-19T10:13:29.247Z,17.83
2023-01-19T10:16:45.772Z,26.73
2023-01-19T10:19:54.569Z,20.73
2023-01-19T10:23:02.308Z,22.70
2023-01-19T10:26:28.667Z,20.77
2023-01-19T10:29:38.416Z,18.48
2023-01-19T10:32:49.666Z,19.15
2023-01-19T10:35:56.382Z,17.40
2023-01-19T10:39:06.575Z,17.73
2023-01-19T10:42:16.121Z,19.67
2023-01-19T10:45:31.660Z,18.90
2023-01-19T10:48:43.655Z,18.12
2023-01-19T10:51:49.300Z,20.08
2023-01-19T10:54:56.760Z,20.33
2023-01-19T10:58:01.470Z,16.80
2023-01-19T11:01:20.807Z,16.52
2023-01-19T11:04:42.794Z,19.52
2023-01-19T11:07:50.799Z,20.23
2023-01-19T11:11:04.656Z,20.47
2023-01-19T11:14:13.855Z,20.37
2023-01-19T11:17:26.012Z,18.35
2023-01-19T11:20:37.643Z,19.17
2023-01-19T11:23:53.146Z,20.90
2023-01-19T11:27:05.907Z,20.47
2023-01-19T11:30:31.611Z,19.12
2023-01-19T11:33:42.668Z,18.20
2023-01-19T11:37:03.441Z,20.50
2023-01-19T11:40:14.393Z,20.27
2023-01-19T11:43:47.450Z,19.83
2023-01-19T11:47:19.517Z,20.52
2023-01-19T11:50:35.603Z,22.42
2023-01-19T11:53:52.639Z,20.05
2023-01-19T11:57:00.130Z,20.15
2023-01-19T12:00:23.150Z,21.57
2023-01-19T12:03:34.695Z,21.15
2023-01-19T12:06:53.606Z,20.40
2023-01-19T12:10:25.935Z,20.40
2023-01-19T12:13:32.058Z,19.35
2023-01-19T12:16:43.723Z,21.80
2023-01-19T12:20:05.550Z,22.52
2023-01-19T12:23:21.687Z,19.17
2023-01-19T12:26:39.574Z,17.85
2023-01-19T12:29:47.745Z,17.80
2023-01-19T12:32:52.366Z,18.47
2023-01-19T12:36:06.112Z,16.65
2023-01-19T12:39:24.565Z,20.77
2023-01-19T12:42:32.010Z,18.42
2023-01-19T12:45:40.516Z,18.67
2023-01-19T12:48:51.643Z,18.60
2023-01-19T12:52:28.613Z,19.02
2023-01-19T12:55:47.596Z,17.80
2023-01-19T12:58:53.612Z,18.23
2023-01-19T13:02:30.597Z,16.67
2023-01-19T13:05:41.918Z,16.57
2023-01-19T13:08:58.607Z,18.48
2023-01-19T13:12:14.787Z,20.30
2023-01-19T13:15:39.674Z,20.50
2023-01-19T13:18:44.014Z,17.65
2023-01-19T13:21:58.194Z,20.97
2023-01-19T13:25:28.578Z,17.77
2023-01-19T13:28:46.652Z,19.98
2023-01-19T13:32:12.514Z,21.02
2023-01-19T13:35:23.597Z,20.70
2023-01-19T13:38:32.964Z,19.80
2023-01-19T13:41:48.909Z,20.17
2023-01-19T13:45:04.499Z,21.95
2023-01-19T13:48:20.595Z,21.95
2023-01-19T13:51:24.533Z,21.73
2023-01-19T13:54:30.782Z,22.80
2023-01-19T13:57:58.502Z,21.37
2023-01-19T14:01:29.226Z,21.92
2023-01-19T14:04:42.617Z,23.65
2023-01-19T14:08:20.778Z,19.35
2023-01-19T14:11:34.903Z,19.37
2023-01-19T14:14:47.513Z,17.73
2023-01-19T14:18:20.600Z,17.87
2023-01-19T14:21:46.134Z,17.40
2023-01-19T14:24:54.599Z,16.17
2023-01-19T14:28:41.074Z,14.93
2023-01-19T14:32:01.732Z,14.32
2023-01-19T14:35:26.548Z,16.23
2023-01-19T14:38:31.578Z,15.50
2023-01-19T14:41:50.724Z,17.77
2023-01-19T14:45:21.505Z,15.50
2023-01-19T14:48:29.716Z,16.08
2023-01-19T14:51:45.854Z,14.07
2023-01-19T14:55:00.066Z,15.55
2023-01-19T14:58:12.945Z,17.27
2023-01-19T15:01:18.073Z,14.80
2023-01-19T15:04:25.460Z,16.15
2023-01-19T15:07:32.695Z,15.70
2023-01-19T15:10:46.295Z,16.12
2023-01-19T15:14:02.508Z,13.98
2023-01-19T15:17:14.488Z,13.37
2023-01-19T15:20:21.062Z,17.12
2023-01-19T15:23:28.603Z,17.55
2023-01-19T15:26:49.686Z,17.77
2023-01-19T15:29:54.494Z,15.32
2023-01-19T15:33:05.466Z,16.87
2023-01-19T15:36:25.359Z,17.30
2023-01-19T15:39:28.796Z,17.30
2023-01-19T15:42:35.579Z,16.48
2023-01-19T15:46:06.577Z,21.67
2023-01-19T15:49:19.132Z,17.37
2023-01-19T15:52:36.535Z,19.80
2023-01-19T15:55:43.520Z,17.35
2023-01-19T15:58:55.134Z,20.90
2023-01-19T16:02:03.018Z,20.60
2023-01-19T16:05:21.596Z,20.87
2023-01-19T16:08:38.182Z,21.92
2023-01-19T16:11:50.612Z,21.35
2023-01-19T16:14:55.645Z,21.42
2023-01-19T16:18:07.651Z,21.25
2023-01-19T16:21:14.650Z,19.67
2023-01-19T16:24:28.826Z,20.80
2023-01-19T16:27:32.181Z,21.83
2023-01-19T16:30:39.775Z,20.25
2023-01-19T16:33:50.204Z,21.60
2023-01-19T16:36:59.534Z,21.20
2023-01-19T16:40:07.593Z,23.42
2023-01-19T16:43:21.631Z,24.65
2023-01-19T16:46:39.618Z,22.62
2023-01-19T16:49:56.265Z,24.33
2023-01-19T16:53:01.094Z,25.27
2023-01-19T16:56:09.534Z,21.77
2023-01-19T16:59:24.642Z,23.30
2023-01-19T17:02:44.807Z,22.23
2023-01-19T17:05:52.969Z,22.20
2023-01-19T17:09:00.547Z,20.97
2023-01-19T17:12:09.851Z,21.45
2023-01-19T17:15:27.273Z,24.02
2023-01-19T17:18:52.761Z,21.33
2023-01-19T17:22:11.467Z,20.20
2023-01-19T17:25:17.877Z,19.33
2023-01-19T17:28:23.630Z,22.65
2023-01-19T17:31:43.558Z,22.40
2023-01-19T17:35:05.581Z,22.15
2023-01-19T17:38:19.577Z,18.65
2023-01-19T17:41:35.088Z,24.30
2023-01-19T17:44:58.458Z,25.42
2023-01-19T17:48:03.609Z,19.80
2023-01-19T17:51:20.540Z,21.83
2023-01-19T17:54:31.178Z,18.98
2023-01-19T17:57:44.673Z,18.67
2023-01-19T18:01:20.680Z,19.20
2023-01-19T18:04:32.187Z,19.35
2023-01-19T18:07:44.530Z,19.50
2023-01-19T18:11:16.471Z,18.85
2023-01-19T18:14:28.672Z,20.67
2023-01-19T18:17:48.049Z,20.15
2023-01-19T18:20:52.536Z,20.33
2023-01-19T18:24:08.436Z,19.77
2023-01-19T18:27:17.538Z,18.65
2023-01-19T18:30:22.624Z,18.70
2023-01-19T18:33:26.705Z,16.92
2023-01-19T18:36:44.544Z,20.23
2023-01-19T18:39:51.594Z,20.62
2023-01-19T18:42:58.588Z,17.87
2023-01-19T18:46:12.610Z,17.30
2023-01-19T18:49:17.647Z,20.95
2023-01-19T18:52:38.436Z,20.15
2023-01-19T18:56:06.406Z,16.98
2023-01-19T18:59:12.977Z,17.98
2023-01-19T19:02:20.307Z,17.07
2023-01-19T19:05:31.520Z,15.35
2023-01-19T19:08:39.559Z,16.33
2023-01-19T19:11:49.724Z,16.37
2023-01-19T19:14:59.474Z,13.55
2023-01-19T19:18:17.516Z,17.73
2023-01-19T19:21:30.542Z,21.87
2023-01-19T19:24:35.594Z,18.87
2023-01-19T19:27:54.413Z,16.85
2023-01-19T19:31:12.977Z,16.70
2023-01-19T19:34:26.533Z,17.53
2023-01-19T19:37:44.589Z,16.83
2023-01-19T19:40:52.485Z,17.85
2023-01-19T19:44:02.510Z,18.12
2023-01-19T19:47:09.977Z,17.45
2023-01-19T19:50:17.994Z,18.13
2023-01-19T19:53:27.483Z,16.92
2023-01-19T19:56:40.512Z,19.65
2023-01-19T19:59:48.740Z,17.83
2023-01-19T20:02:56.485Z,20.37
2023-01-19T20:06:09.286Z,15.60
2023-01-19T20:09:24.523Z,14.07
2023-01-19T20:12:34.961Z,15.68
2023-01-19T20:15:45.547Z,13.38
2023-01-19T20:18:59.559Z,14.23
2023-01-19T20:22:13.545Z,15.57
2023-01-19T20:25:17.190Z,15.95
2023-01-19T20:28:28.665Z,14.27
2023-01-19T20:31:39.955Z,16.15
2023-01-19T20:34:43.520Z,15.55
2023-01-19T20:37:56.531Z,14.80
2023-01-19T20:41:14.974Z,15.07
2023-01-19T20:44:28.446Z,16.10
2023-01-19T20:47:38.425Z,17.73
2023-01-19T20:50:49.788Z,16.83
2023-01-19T20:53:57.548Z,14.70
2023-01-19T20:57:02.583Z,15.95
2023-01-19T21:00:20.956Z,16.80
2023-01-19T21:03:31.717Z,14.70
2023-01-19T21:06:47.828Z,16.40
2023-01-19T21:09:54.832Z,14.20
2023-01-19T21:13:07.497Z,15.07
2023-01-19T21:16:21.522Z,16.30
2023-01-19T21:19:31.736Z,17.00
2023-01-19T21:22:43.437Z,15.67
2023-01-19T21:25:53.879Z,16.80
2023-01-19T21:29:05.572Z,15.75
2023-01-19T21:32:08.931Z,16.00
2023-01-19T21:35:14.100Z,17.20
2023-01-19T21:38:18.229Z,16.83
2023-01-19T21:41:27.341Z,18.87
2023-01-19T21:44:33.438Z,22.17
2023-01-19T21:47:38.484Z,16.60
2023-01-19T21:50:57.250Z,18.83
2023-01-19T21:54:08.238Z,19.47
2023-01-19T21:57:11.415Z,18.50
2023-01-19T22:00:15.036Z,18.70
2023-01-19T22:03:21.067Z,17.23
2023-01-19T22:06:26.826Z,15.93
2023-01-19T22:09:35.171Z,17.57
2023-01-19T22:12:42.700Z,19.25
2023-01-19T22:15:51.491Z,20.48
2023-01-19T22:18:59.699Z,16.95
2023-01-19T22:22:04.513Z,17.77
2023-01-19T22:25:12.968Z,19.43
2023-01-19T22:28:16.059Z,18.05
2023-01-19T22:31:20.424Z,16.90
2023-01-19T22:34:24.885Z,15.80
2023-01-19T22:37:34.500Z,18.15
2023-01-19T22:40:38.119Z,16.27
2023-01-19T22:43:41.860Z,17.45
2023-01-19T22:46:45.516Z,17.05
2023-01-19T22:49:48.633Z,15.63
2023-01-19T22:52:55.837Z,15.90
2023-01-19T22:55:59.058Z,19.17
2023-01-19T22:59:04.809Z,17.17
2023-01-19T23:02:10.070Z,16.73
2023-01-19T23:05:17.259Z,19.00
2023-01-19T23:08:20.679Z,18.50
2023-01-19T23:11:36.153Z,15.60
2023-01-19T23:14:41.477Z,17.23
2023-01-19T23:17:47.375Z,15.45
2023-01-19T23:20:50.082Z,17.55
2023-01-19T23:23:56.442Z,17.97
2023-01-19T23:27:02.469Z,18.02
2023-01-19T23:30:08.000Z,17.95
2023-01-19T23:33:10.866Z,17.20
2023-01-19T23:36:15.523Z,18.10
2023-01-19T23:39:22.510Z,18.60
2023-01-19T23:42:25.476Z,17.40
2023-01-19T23:45:36.224Z,19.70
2023-01-19T23:48:40.476Z,17.27
2023-01-19T23:51:43.587Z,17.67
2023-01-19T23:54:47.791Z,18.97
2023-01-19T23:57:51.157Z,19.03
